sensor_id;sensor_type;location;lat;lon;timestamp;P1;durP1;ratioP1;P2;durP2;ratioP2
29026;SDS011;16120;48.608;9.092;2023-12-04T00:01:30;133.30;;;11.27;;
29026;SDS011;16120;48.608;9.092;2023-12-04T00:05:25;132.90;;;11.47;;
29026;SDS011;16120;48.608;9.092;2023-12-04T00:09:22;132.70;;;11.40;;
29026;SDS011;16120;48.608;9.092;2023-12-04T00:13:17;131.87;;;11.70;;
29026;SDS011;16120;48.608;9.092;2023-12-04T00:17:12;132.47;;;11.40;;
29026;SDS011;16120;48.608;9.092;2023-12-04T00:21:08;132.67;;;11.37;;
29026;SDS011;16120;48.608;9.092;2023-12-04T00:25:05;133.43;;;11.63;;
29026;SDS011;16120;48.608;9.092;2023-12-04T00:29:01;132.57;;;11.50;;
29026;SDS011;16120;48.608;9.092;2023-12-04T00:32:56;132.70;;;11.63;;
29026;SDS011;16120;48.608;9.092;2023-12-04T00:36:51;132.55;;;11.27;;
29026;SDS011;16120;48.608;9.092;2023-12-04T00:40:48;132.95;;;11.57;;
29026;SDS011;16120;48.608;9.092;2023-12-04T00:44:43;132.50;;;11.50;;
29026;SDS011;16120;48.608;9.092;2023-12-04T00:48:38;132.67;;;11.30;;
29026;SDS011;16120;48.608;9.092;2023-12-04T00:52:33;132.40;;;11.47;;
29026;SDS011;16120;48.608;9.092;2023-12-04T00:56:30;132.07;;;11.40;;
29026;SDS011;16120;48.608;9.092;2023-12-04T01:00:25;132.00;;;11.40;;
29026;SDS011;16120;48.608;9.092;2023-12-04T01:04:20;132.47;;;11.50;;
29026;SDS011;16120;48.608;9.092;2023-12-04T01:08:15;133.23;;;11.70;;
29026;SDS011;16120;48.608;9.092;2023-12-04T01:12:12;133.17;;;11.60;;
29026;SDS011;16120;48.608;9.092;2023-12-04T01:16:07;132.90;;;11.37;;
29026;SDS011;16120;48.608;9.092;2023-12-04T01:20:03;133.20;;;11.67;;
29026;SDS011;16120;48.608;9.092;2023-12-04T01:23:58;132.53;;;11.33;;
29026;SDS011;16120;48.608;9.092;2023-12-04T01:27:55;133.00;;;11.40;;
29026;SDS011;16120;48.608;9.092;2023-12-04T01:31:50;132.77;;;11.77;;
29026;SDS011;16120;48.608;9.092;2023-12-04T01:35:45;132.35;;;11.32;;
29026;SDS011;16120;48.608;9.092;2023-12-04T01:39:40;132.85;;;11.35;;
29026;SDS011;16120;48.608;9.092;2023-12-04T01:43:37;132.60;;;11.50;;
29026;SDS011;16120;48.608;9.092;2023-12-04T01:47:32;132.40;;;11.57;;
29026;SDS011;16120;48.608;9.092;2023-12-04T01:51:27;133.20;;;11.60;;
29026;SDS011;16120;48.608;9.092;2023-12-04T01:55:22;132.67;;;11.60;;
29026;SDS011;16120;48.608;9.092;2023-12-04T01:59:19;132.52;;;11.48;;
29026;SDS011;16120;48.608;9.092;2023-12-04T02:03:15;132.27;;;11.37;;
29026;SDS011;16120;48.608;9.092;2023-12-04T02:07:10;132.60;;;11.30;;
29026;SDS011;16120;48.608;9.092;2023-12-04T02:11:05;133.20;;;11.63;;
29026;SDS011;16120;48.608;9.092;2023-12-04T02:15:02;132.17;;;11.47;;
29026;SDS011;16120;48.608;9.092;2023-12-04T02:18:58;132.87;;;11.70;;
29026;SDS011;16120;48.608;9.092;2023-12-04T02:22:53;133.13;;;11.43;;
29026;SDS011;16120;48.608;9.092;2023-12-04T02:26:51;132.67;;;11.50;;
29026;SDS011;16120;48.608;9.092;2023-12-04T02:30:47;133.03;;;11.50;;
29026;SDS011;16120;48.608;9.092;2023-12-04T02:34:42;132.97;;;11.80;;
29026;SDS011;16120;48.608;9.092;2023-12-04T02:38:38;133.27;;;11.70;;
29026;SDS011;16120;48.608;9.092;2023-12-04T02:42:35;132.80;;;11.50;;
29026;SDS011;16120;48.608;9.092;2023-12-04T02:46:30;132.83;;;11.57;;
29026;SDS011;16120;48.608;9.092;2023-12-04T02:50:25;133.27;;;11.63;;
29026;SDS011;16120;48.608;9.092;2023-12-04T02:54:21;132.97;;;11.60;;
29026;SDS011;16120;48.608;9.092;2023-12-04T02:58:17;132.95;;;11.73;;
29026;SDS011;16120;48.608;9.092;2023-12-04T03:02:12;132.73;;;11.30;;
29026;SDS011;16120;48.608;9.092;2023-12-04T03:06:08;133.63;;;11.95;;
29026;SDS011;16120;48.608;9.092;2023-12-04T03:10:03;132.47;;;11.50;;
29026;SDS011;16120;48.608;9.092;2023-12-04T03:14:00;132.17;;;11.30;;
29026;SDS011;16120;48.608;9.092;2023-12-04T03:17:55;132.13;;;11.80;;
29026;SDS011;16120;48.608;9.092;2023-12-04T03:21:50;132.45;;;11.65;;
29026;SDS011;16120;48.608;9.092;2023-12-04T03:25:46;133.07;;;11.80;;
29026;SDS011;16120;48.608;9.092;2023-12-04T03:29:42;132.80;;;11.63;;
29026;SDS011;16120;48.608;9.092;2023-12-04T03:33:37;133.00;;;11.83;;
29026;SDS011;16120;48.608;9.092;2023-12-04T03:37:33;132.52;;;11.75;;
29026;SDS011;16120;48.608;9.092;2023-12-04T03:41:28;133.23;;;11.77;;
29026;SDS011;16120;48.608;9.092;2023-12-04T03:45:24;133.30;;;11.52;;
29026;SDS011;16120;48.608;9.092;2023-12-04T03:49:20;133.60;;;11.60;;
29026;SDS011;16120;48.608;9.092;2023-12-04T03:53:15;133.40;;;11.15;;
29026;SDS011;16120;48.608;9.092;2023-12-04T03:57:10;133.27;;;11.40;;
29026;SDS011;16120;48.608;9.092;2023-12-04T04:01:07;132.80;;;11.18;;
29026;SDS011;16120;48.608;9.092;2023-12-04T04:05:02;132.93;;;11.40;;
29026;SDS011;16120;48.608;9.092;2023-12-04T04:08:57;133.20;;;11.20;;
29026;SDS011;16120;48.608;9.092;2023-12-04T04:12:52;133.33;;;11.40;;
29026;SDS011;16120;48.608;9.092;2023-12-04T04:16:49;133.13;;;11.40;;
29026;SDS011;16120;48.608;9.092;2023-12-04T04:20:44;133.17;;;11.37;;
29026;SDS011;16120;48.608;9.092;2023-12-04T04:24:39;132.83;;;11.60;;
29026;SDS011;16120;48.608;9.092;2023-12-04T04:28:34;132.80;;;11.50;;
29026;SDS011;16120;48.608;9.092;2023-12-04T04:32:31;133.07;;;11.40;;
29026;SDS011;16120;48.608;9.092;2023-12-04T04:36:26;132.47;;;11.40;;
29026;SDS011;16120;48.608;9.092;2023-12-04T04:40:21;133.73;;;11.80;;
29026;SDS011;16120;48.608;9.092;2023-12-04T04:44:17;132.20;;;11.57;;
29026;SDS011;16120;48.608;9.092;2023-12-04T04:48:13;132.13;;;11.70;;
29026;SDS011;16120;48.608;9.092;2023-12-04T04:52:08;132.93;;;11.60;;
29026;SDS011;16120;48.608;9.092;2023-12-04T04:56:04;132.90;;;11.50;;
29026;SDS011;16120;48.608;9.092;2023-12-04T04:59:59;133.00;;;11.63;;
29026;SDS011;16120;48.608;9.092;2023-12-04T05:03:56;132.68;;;11.55;;
29026;SDS011;16120;48.608;9.092;2023-12-04T05:07:51;132.17;;;11.57;;
29026;SDS011;16120;48.608;9.092;2023-12-04T05:11:46;132.77;;;11.70;;
29026;SDS011;16120;48.608;9.092;2023-12-04T05:15:41;132.93;;;11.67;;
29026;SDS011;16120;48.608;9.092;2023-12-04T05:19:38;133.17;;;11.73;;
29026;SDS011;16120;48.608;9.092;2023-12-04T05:23:33;133.00;;;11.60;;
29026;SDS011;16120;48.608;9.092;2023-12-04T05:27:28;133.32;;;12.45;;
29026;SDS011;16120;48.608;9.092;2023-12-04T05:31:24;133.13;;;11.50;;
29026;SDS011;16120;48.608;9.092;2023-12-04T05:35:20;132.83;;;11.60;;
29026;SDS011;16120;48.608;9.092;2023-12-04T05:39:15;132.90;;;11.63;;
29026;SDS011;16120;48.608;9.092;2023-12-04T05:43:10;132.90;;;11.30;;
29026;SDS011;16120;48.608;9.092;2023-12-04T05:47:06;132.57;;;11.30;;
29026;SDS011;16120;48.608;9.092;2023-12-04T05:51:02;132.97;;;11.30;;
29026;SDS011;16120;48.608;9.092;2023-12-04T05:54:58;132.67;;;11.50;;
29026;SDS011;16120;48.608;9.092;2023-12-04T05:58:53;133.15;;;11.27;;
29026;SDS011;16120;48.608;9.092;2023-12-04T06:02:48;132.50;;;11.50;;
29026;SDS011;16120;48.608;9.092;2023-12-04T06:06:45;132.77;;;11.13;;
29026;SDS011;16120;48.608;9.092;2023-12-04T06:10:40;132.57;;;11.40;;
29026;SDS011;16120;48.608;9.092;2023-12-04T06:14:35;132.43;;;11.40;;
29026;SDS011;16120;48.608;9.092;2023-12-04T06:18:30;132.50;;;11.33;;
29026;SDS011;16120;48.608;9.092;2023-12-04T06:22:27;132.57;;;11.27;;
29026;SDS011;16120;48.608;9.092;2023-12-04T06:26:22;132.40;;;11.40;;
29026;SDS011;16120;48.608;9.092;2023-12-04T06:30:24;132.17;;;11.60;;
29026;SDS011;16120;48.608;9.092;2023-12-04T06:34:19;132.23;;;11.57;;
29026;SDS011;16120;48.608;9.092;2023-12-04T06:38:16;132.40;;;11.47;;
29026;SDS011;16120;48.608;9.092;2023-12-04T06:42:14;132.13;;;11.13;;
29026;SDS011;16120;48.608;9.092;2023-12-04T06:46:09;132.37;;;11.57;;
29026;SDS011;16120;48.608;9.092;2023-12-04T06:50:06;132.37;;;11.67;;
29026;SDS011;16120;48.608;9.092;2023-12-04T06:54:02;131.80;;;11.50;;
29026;SDS011;16120;48.608;9.092;2023-12-04T06:57:58;132.40;;;11.70;;
29026;SDS011;16120;48.608;9.092;2023-12-04T07:01:53;132.37;;;11.47;;
29026;SDS011;16120;48.608;9.092;2023-12-04T07:05:48;132.95;;;11.95;;
29026;SDS011;16120;48.608;9.092;2023-12-04T07:09:45;132.07;;;11.50;;
29026;SDS011;16120;48.608;9.092;2023-12-04T07:13:40;132.07;;;11.57;;
29026;SDS011;16120;48.608;9.092;2023-12-04T07:17:36;131.80;;;11.63;;
29026;SDS011;16120;48.608;9.092;2023-12-04T07:21:31;131.70;;;11.20;;
29026;SDS011;16120;48.608;9.092;2023-12-04T07:25:27;131.67;;;11.50;;
29026;SDS011;16120;48.608;9.092;2023-12-04T07:29:23;131.97;;;11.83;;
29026;SDS011;16120;48.608;9.092;2023-12-04T07:33:18;131.30;;;11.57;;
29026;SDS011;16120;48.608;9.092;2023-12-04T07:37:13;131.63;;;11.73;;
29026;SDS011;16120;48.608;9.092;2023-12-04T07:41:09;131.40;;;11.45;;
29026;SDS011;16120;48.608;9.092;2023-12-04T07:45:05;131.17;;;11.70;;
29026;SDS011;16120;48.608;9.092;2023-12-04T07:49:00;131.13;;;11.63;;
29026;SDS011;16120;48.608;9.092;2023-12-04T07:52:56;131.17;;;11.70;;
29026;SDS011;16120;48.608;9.092;2023-12-04T07:56:52;131.23;;;11.70;;
29026;SDS011;16120;48.608;9.092;2023-12-04T08:00:47;131.07;;;11.27;;
29026;SDS011;16120;48.608;9.092;2023-12-04T08:04:43;130.88;;;11.55;;
29026;SDS011;16120;48.608;9.092;2023-12-04T08:08:38;131.13;;;11.60;;
29026;SDS011;16120;48.608;9.092;2023-12-04T08:12:34;130.87;;;11.80;;
29026;SDS011;16120;48.608;9.092;2023-12-04T08:16:29;130.73;;;11.80;;
29026;SDS011;16120;48.608;9.092;2023-12-04T08:20:25;131.00;;;12.00;;
29026;SDS011;16120;48.608;9.092;2023-12-04T08:24:20;130.50;;;11.70;;
29026;SDS011;16120;48.608;9.092;2023-12-04T08:28:16;131.43;;;12.25;;
29026;SDS011;16120;48.608;9.092;2023-12-04T08:32:12;130.90;;;12.17;;
29026;SDS011;16120;48.608;9.092;2023-12-04T08:36:07;130.70;;;12.13;;
29026;SDS011;16120;48.608;9.092;2023-12-04T08:40:03;131.10;;;12.87;;
29026;SDS011;16120;48.608;9.092;2023-12-04T08:43:59;130.70;;;12.13;;
29026;SDS011;16120;48.608;9.092;2023-12-04T08:47:55;130.80;;;13.40;;
29026;SDS011;16120;48.608;9.092;2023-12-04T08:51:51;130.10;;;11.77;;
29026;SDS011;16120;48.608;9.092;2023-12-04T08:55:47;130.37;;;12.37;;
29026;SDS011;16120;48.608;9.092;2023-12-04T08:59:44;129.50;;;11.97;;
29026;SDS011;16120;48.608;9.092;2023-12-04T09:03:40;129.87;;;11.73;;
29026;SDS011;16120;48.608;9.092;2023-12-04T09:07:35;128.90;;;12.03;;
29026;SDS011;16120;48.608;9.092;2023-12-04T09:11:31;129.03;;;11.87;;
29026;SDS011;16120;48.608;9.092;2023-12-04T09:15:27;128.50;;;11.47;;
29026;SDS011;16120;48.608;9.092;2023-12-04T09:19:22;128.37;;;11.57;;
29026;SDS011;16120;48.608;9.092;2023-12-04T09:23:18;128.10;;;11.30;;
29026;SDS011;16120;48.608;9.092;2023-12-04T09:27:13;128.27;;;11.57;;
29026;SDS011;16120;48.608;9.092;2023-12-04T09:31:09;128.32;;;11.40;;
29026;SDS011;16120;48.608;9.092;2023-12-04T09:35:05;127.57;;;11.30;;
29026;SDS011;16120;48.608;9.092;2023-12-04T09:39:00;126.60;;;11.10;;
29026;SDS011;16120;48.608;9.092;2023-12-04T09:42:55;127.43;;;11.53;;
29026;SDS011;16120;48.608;9.092;2023-12-04T09:46:52;127.03;;;11.97;;
29026;SDS011;16120;48.608;9.092;2023-12-04T09:50:48;127.37;;;12.17;;
29026;SDS011;16120;48.608;9.092;2023-12-04T09:54:43;127.27;;;12.20;;
29026;SDS011;16120;48.608;9.092;2023-12-04T09:58:39;127.27;;;12.73;;
29026;SDS011;16120;48.608;9.092;2023-12-04T10:02:36;126.17;;;11.43;;
29026;SDS011;16120;48.608;9.092;2023-12-04T10:06:31;125.77;;;11.00;;
29026;SDS011;16120;48.608;9.092;2023-12-04T10:10:26;125.93;;;11.37;;
29026;SDS011;16120;48.608;9.092;2023-12-04T10:14:22;126.50;;;12.47;;
29026;SDS011;16120;48.608;9.092;2023-12-04T10:18:28;125.67;;;11.93;;
29026;SDS011;16120;48.608;9.092;2023-12-04T10:22:23;125.47;;;11.87;;
29026;SDS011;16120;48.608;9.092;2023-12-04T10:26:18;125.23;;;11.20;;
29026;SDS011;16120;48.608;9.092;2023-12-04T10:30:23;124.80;;;11.70;;
29026;SDS011;16120;48.608;9.092;2023-12-04T10:34:20;125.60;;;12.00;;
29026;SDS011;16120;48.608;9.092;2023-12-04T10:38:15;124.77;;;11.17;;
29026;SDS011;16120;48.608;9.092;2023-12-04T10:42:10;123.95;;;11.45;;
29026;SDS011;16120;48.608;9.092;2023-12-04T10:46:06;124.47;;;11.60;;
29026;SDS011;16120;48.608;9.092;2023-12-04T10:50:03;123.47;;;10.90;;
29026;SDS011;16120;48.608;9.092;2023-12-04T10:53:58;123.10;;;11.00;;
29026;SDS011;16120;48.608;9.092;2023-12-04T10:57:53;123.37;;;10.80;;
29026;SDS011;16120;48.608;9.092;2023-12-04T11:01:48;123.47;;;10.97;;
29026;SDS011;16120;48.608;9.092;2023-12-04T11:05:46;124.20;;;11.97;;
29026;SDS011;16120;48.608;9.092;2023-12-04T11:09:44;122.87;;;11.00;;
29026;SDS011;16120;48.608;9.092;2023-12-04T11:13:41;123.27;;;11.20;;
29026;SDS011;16120;48.608;9.092;2023-12-04T11:17:36;122.77;;;10.70;;
29026;SDS011;16120;48.608;9.092;2023-12-04T11:21:34;122.70;;;10.10;;
29026;SDS011;16120;48.608;9.092;2023-12-04T11:25:29;122.57;;;10.80;;
29026;SDS011;16120;48.608;9.092;2023-12-04T11:29:25;123.37;;;11.20;;
29026;SDS011;16120;48.608;9.092;2023-12-04T11:33:21;122.37;;;11.13;;
29026;SDS011;16120;48.608;9.092;2023-12-04T11:37:17;122.50;;;10.57;;
29026;SDS011;16120;48.608;9.092;2023-12-04T11:41:15;122.87;;;10.87;;
29026;SDS011;16120;48.608;9.092;2023-12-04T11:45:15;122.53;;;10.13;;
29026;SDS011;16120;48.608;9.092;2023-12-04T11:49:28;122.37;;;10.37;;
29026;SDS011;16120;48.608;9.092;2023-12-04T11:53:24;123.90;;;12.00;;
29026;SDS011;16120;48.608;9.092;2023-12-04T11:57:20;122.57;;;10.30;;
29026;SDS011;16120;48.608;9.092;2023-12-04T12:01:16;122.47;;;10.33;;
29026;SDS011;16120;48.608;9.092;2023-12-04T12:05:12;122.07;;;10.50;;
29026;SDS011;16120;48.608;9.092;2023-12-04T12:09:08;122.40;;;11.00;;
29026;SDS011;16120;48.608;9.092;2023-12-04T12:13:04;121.87;;;10.63;;
29026;SDS011;16120;48.608;9.092;2023-12-04T12:16:59;121.20;;;10.13;;
29026;SDS011;16120;48.608;9.092;2023-12-04T12:20:55;121.07;;;10.00;;
29026;SDS011;16120;48.608;9.092;2023-12-04T12:24:51;120.73;;;10.30;;
29026;SDS011;16120;48.608;9.092;2023-12-04T12:28:46;120.40;;;10.20;;
29026;SDS011;16120;48.608;9.092;2023-12-04T12:32:42;120.80;;;10.47;;
29026;SDS011;16120;48.608;9.092;2023-12-04T12:36:37;120.27;;;10.07;;
29026;SDS011;16120;48.608;9.092;2023-12-04T12:40:33;120.28;;;10.50;;
29026;SDS011;16120;48.608;9.092;2023-12-04T12:44:29;120.30;;;10.30;;
29026;SDS011;16120;48.608;9.092;2023-12-04T12:48:31;120.07;;;10.10;;
29026;SDS011;16120;48.608;9.092;2023-12-04T12:52:27;120.17;;;9.93;;
29026;SDS011;16120;48.608;9.092;2023-12-04T12:56:23;120.13;;;9.80;;
29026;SDS011;16120;48.608;9.092;2023-12-04T13:00:19;119.70;;;9.53;;
29026;SDS011;16120;48.608;9.092;2023-12-04T13:04:14;119.57;;;9.67;;
29026;SDS011;16120;48.608;9.092;2023-12-04T13:08:10;119.97;;;9.67;;
29026;SDS011;16120;48.608;9.092;2023-12-04T13:12:07;120.13;;;9.82;;
29026;SDS011;16120;48.608;9.092;2023-12-04T13:16:02;119.93;;;9.73;;
29026;SDS011;16120;48.608;9.092;2023-12-04T13:19:57;120.27;;;10.43;;
29026;SDS011;16120;48.608;9.092;2023-12-04T13:23:52;120.80;;;10.13;;
29026;SDS011;16120;48.608;9.092;2023-12-04T13:27:49;120.40;;;10.27;;
29026;SDS011;16120;48.608;9.092;2023-12-04T13:31:44;119.90;;;9.87;;
29026;SDS011;16120;48.608;9.092;2023-12-04T13:35:39;120.30;;;9.73;;
29026;SDS011;16120;48.608;9.092;2023-12-04T13:39:35;119.87;;;9.70;;
29026;SDS011;16120;48.608;9.092;2023-12-04T13:43:31;120.10;;;10.10;;
29026;SDS011;16120;48.608;9.092;2023-12-04T13:47:26;120.27;;;9.80;;
29026;SDS011;16120;48.608;9.092;2023-12-04T13:51:21;121.32;;;10.48;;
29026;SDS011;16120;48.608;9.092;2023-12-04T13:55:17;119.97;;;9.63;;
29026;SDS011;16120;48.608;9.092;2023-12-04T13:59:13;119.87;;;9.47;;
29026;SDS011;16120;48.608;9.092;2023-12-04T14:03:08;120.80;;;10.17;;
29026;SDS011;16120;48.608;9.092;2023-12-04T14:07:04;122.23;;;12.30;;
29026;SDS011;16120;48.608;9.092;2023-12-04T14:10:59;120.90;;;10.13;;
29026;SDS011;16120;48.608;9.092;2023-12-04T14:14:55;120.57;;;10.03;;
29026;SDS011;16120;48.608;9.092;2023-12-04T14:18:51;120.87;;;10.13;;
29026;SDS011;16120;48.608;9.092;2023-12-04T14:22:46;120.97;;;9.80;;
29026;SDS011;16120;48.608;9.092;2023-12-04T14:26:41;121.97;;;11.00;;
29026;SDS011;16120;48.608;9.092;2023-12-04T14:30:37;121.23;;;10.27;;
29026;SDS011;16120;48.608;9.092;2023-12-04T14:34:33;121.50;;;10.60;;
29026;SDS011;16120;48.608;9.092;2023-12-04T14:38:28;121.63;;;10.38;;
29026;SDS011;16120;48.608;9.092;2023-12-04T14:42:23;120.33;;;9.77;;
29026;SDS011;16120;48.608;9.092;2023-12-04T14:46:20;121.17;;;10.17;;
29026;SDS011;16120;48.608;9.092;2023-12-04T14:50:15;121.17;;;10.03;;
29026;SDS011;16120;48.608;9.092;2023-12-04T14:54:10;120.97;;;10.10;;
29026;SDS011;16120;48.608;9.092;2023-12-04T14:58:05;121.30;;;10.13;;
29026;SDS011;16120;48.608;9.092;2023-12-04T15:02:02;121.17;;;10.17;;
29026;SDS011;16120;48.608;9.092;2023-12-04T15:05:57;121.37;;;10.30;;
29026;SDS011;16120;48.608;9.092;2023-12-04T15:09:52;121.53;;;10.23;;
29026;SDS011;16120;48.608;9.092;2023-12-04T15:13:47;121.17;;;10.03;;
29026;SDS011;16120;48.608;9.092;2023-12-04T15:17:44;121.27;;;9.77;;
29026;SDS011;16120;48.608;9.092;2023-12-04T15:21:39;121.50;;;10.23;;
29026;SDS011;16120;48.608;9.092;2023-12-04T15:25:34;120.93;;;10.40;;
29026;SDS011;16120;48.608;9.092;2023-12-04T15:29:30;121.50;;;10.90;;
29026;SDS011;16120;48.608;9.092;2023-12-04T15:33:27;121.70;;;10.50;;
29026;SDS011;16120;48.608;9.092;2023-12-04T15:37:22;121.10;;;10.07;;
29026;SDS011;16120;48.608;9.092;2023-12-04T15:41:17;121.70;;;10.90;;
29026;SDS011;16120;48.608;9.092;2023-12-04T15:45:12;121.57;;;10.03;;
29026;SDS011;16120;48.608;9.092;2023-12-04T15:49:09;121.40;;;10.00;;
29026;SDS011;16120;48.608;9.092;2023-12-04T15:53:04;121.33;;;10.30;;
29026;SDS011;16120;48.608;9.092;2023-12-04T15:57:00;120.70;;;10.60;;
29026;SDS011;16120;48.608;9.092;2023-12-04T16:00:55;121.33;;;10.27;;
29026;SDS011;16120;48.608;9.092;2023-12-04T16:04:51;121.53;;;10.60;;
29026;SDS011;16120;48.608;9.092;2023-12-04T16:08:47;120.87;;;10.30;;
29026;SDS011;16120;48.608;9.092;2023-12-04T16:12:42;121.13;;;10.13;;
29026;SDS011;16120;48.608;9.092;2023-12-04T16:16:38;122.10;;;11.20;;
29026;SDS011;16120;48.608;9.092;2023-12-04T16:20:35;120.93;;;9.70;;
29026;SDS011;16120;48.608;9.092;2023-12-04T16:24:30;121.50;;;9.70;;
29026;SDS011;16120;48.608;9.092;2023-12-04T16:28:25;121.80;;;10.07;;
29026;SDS011;16120;48.608;9.092;2023-12-04T16:32:21;121.73;;;10.20;;
29026;SDS011;16120;48.608;9.092;2023-12-04T16:36:17;121.30;;;10.10;;
29026;SDS011;16120;48.608;9.092;2023-12-04T16:40:12;121.73;;;10.80;;
29026;SDS011;16120;48.608;9.092;2023-12-04T16:44:08;121.37;;;10.67;;
29026;SDS011;16120;48.608;9.092;2023-12-04T16:48:03;122.03;;;10.35;;
29026;SDS011;16120;48.608;9.092;2023-12-04T16:52:00;121.50;;;10.27;;
29026;SDS011;16120;48.608;9.092;2023-12-04T16:55:55;121.53;;;10.10;;
29026;SDS011;16120;48.608;9.092;2023-12-04T16:59:50;121.20;;;10.10;;
29026;SDS011;16120;48.608;9.092;2023-12-04T17:03:45;121.70;;;10.50;;
29026;SDS011;16120;48.608;9.092;2023-12-04T17:07:42;121.97;;;10.25;;
29026;SDS011;16120;48.608;9.092;2023-12-04T17:11:37;120.77;;;10.07;;
29026;SDS011;16120;48.608;9.092;2023-12-04T17:15:32;121.70;;;10.40;;
29026;SDS011;16120;48.608;9.092;2023-12-04T17:19:28;121.17;;;9.53;;
29026;SDS011;16120;48.608;9.092;2023-12-04T17:23:24;121.57;;;10.10;;
29026;SDS011;16120;48.608;9.092;2023-12-04T17:27:19;121.37;;;9.73;;
29026;SDS011;16120;48.608;9.092;2023-12-04T17:31:15;121.47;;;10.30;;
29026;SDS011;16120;48.608;9.092;2023-12-04T17:35:10;121.30;;;10.10;;
29026;SDS011;16120;48.608;9.092;2023-12-04T17:39:07;121.37;;;10.00;;
29026;SDS011;16120;48.608;9.092;2023-12-04T17:43:02;121.90;;;10.07;;
29026;SDS011;16120;48.608;9.092;2023-12-04T17:46:57;121.57;;;10.10;;
29026;SDS011;16120;48.608;9.092;2023-12-04T17:50:52;121.37;;;9.97;;
29026;SDS011;16120;48.608;9.092;2023-12-04T17:54:49;122.13;;;10.30;;
29026;SDS011;16120;48.608;9.092;2023-12-04T17:58:44;121.83;;;10.40;;
29026;SDS011;16120;48.608;9.092;2023-12-04T18:02:39;121.97;;;10.03;;
29026;SDS011;16120;48.608;9.092;2023-12-04T18:06:34;122.70;;;10.40;;
29026;SDS011;16120;48.608;9.092;2023-12-04T18:10:31;122.50;;;10.33;;
29026;SDS011;16120;48.608;9.092;2023-12-04T18:14:26;122.27;;;10.30;;
29026;SDS011;16120;48.608;9.092;2023-12-04T18:18:21;122.67;;;10.10;;
29026;SDS011;16120;48.608;9.092;2023-12-04T18:22:16;122.37;;;10.10;;
29026;SDS011;16120;48.608;9.092;2023-12-04T18:26:14;122.65;;;9.98;;
29026;SDS011;16120;48.608;9.092;2023-12-04T18:30:10;122.90;;;10.30;;
29026;SDS011;16120;48.608;9.092;2023-12-04T18:34:05;122.27;;;9.90;;
29026;SDS011;16120;48.608;9.092;2023-12-04T18:38:03;122.63;;;9.93;;
29026;SDS011;16120;48.608;9.092;2023-12-04T18:42:01;122.47;;;9.83;;
29026;SDS011;16120;48.608;9.092;2023-12-04T18:45:57;122.77;;;10.63;;
29026;SDS011;16120;48.608;9.092;2023-12-04T18:49:52;123.00;;;10.37;;
29026;SDS011;16120;48.608;9.092;2023-12-04T18:53:51;122.53;;;9.87;;
29026;SDS011;16120;48.608;9.092;2023-12-04T18:57:48;122.67;;;9.83;;
29026;SDS011;16120;48.608;9.092;2023-12-04T19:01:43;122.57;;;10.00;;
29026;SDS011;16120;48.608;9.092;2023-12-04T19:05:38;123.00;;;10.37;;
29026;SDS011;16120;48.608;9.092;2023-12-04T19:09:33;123.43;;;10.70;;
29026;SDS011;16120;48.608;9.092;2023-12-04T19:13:30;122.97;;;9.85;;
29026;SDS011;16120;48.608;9.092;2023-12-04T19:17:25;123.37;;;10.40;;
29026;SDS011;16120;48.608;9.092;2023-12-04T19:21:20;124.07;;;11.67;;
29026;SDS011;16120;48.608;9.092;2023-12-04T19:25:15;122.93;;;10.17;;
29026;SDS011;16120;48.608;9.092;2023-12-04T19:29:12;123.37;;;10.87;;
29026;SDS011;16120;48.608;9.092;2023-12-04T19:33:07;123.17;;;10.33;;
29026;SDS011;16120;48.608;9.092;2023-12-04T19:37:02;123.57;;;10.20;;
29026;SDS011;16120;48.608;9.092;2023-12-04T19:40:57;123.53;;;10.80;;
29026;SDS011;16120;48.608;9.092;2023-12-04T19:44:54;123.60;;;10.57;;
29026;SDS011;16120;48.608;9.092;2023-12-04T19:48:49;123.07;;;10.47;;
29026;SDS011;16120;48.608;9.092;2023-12-04T19:52:46;123.20;;;9.95;;
29026;SDS011;16120;48.608;9.092;2023-12-04T19:56:42;122.87;;;9.70;;
29026;SDS011;16120;48.608;9.092;2023-12-04T20:00:38;123.37;;;10.23;;
29026;SDS011;16120;48.608;9.092;2023-12-04T20:04:33;123.47;;;10.20;;
29026;SDS011;16120;48.608;9.092;2023-12-04T20:08:28;123.03;;;10.10;;
29026;SDS011;16120;48.608;9.092;2023-12-04T20:12:24;123.17;;;10.30;;
29026;SDS011;16120;48.608;9.092;2023-12-04T20:16:20;123.20;;;10.43;;
29026;SDS011;16120;48.608;9.092;2023-12-04T20:20:17;122.77;;;10.00;;
29026;SDS011;16120;48.608;9.092;2023-12-04T20:24:12;123.13;;;10.17;;
29026;SDS011;16120;48.608;9.092;2023-12-04T20:28:07;123.20;;;10.47;;
29026;SDS011;16120;48.608;9.092;2023-12-04T20:32:04;122.47;;;9.97;;
29026;SDS011;16120;48.608;9.092;2023-12-04T20:36:00;122.40;;;9.97;;
29026;SDS011;16120;48.608;9.092;2023-12-04T20:39:55;122.67;;;10.07;;
29026;SDS011;16120;48.608;9.092;2023-12-04T20:43:50;122.47;;;10.00;;
29026;SDS011;16120;48.608;9.092;2023-12-04T20:47:47;122.60;;;10.13;;
29026;SDS011;16120;48.608;9.092;2023-12-04T20:51:42;122.27;;;9.67;;
29026;SDS011;16120;48.608;9.092;2023-12-04T20:55:37;122.37;;;10.07;;
29026;SDS011;16120;48.608;9.092;2023-12-04T20:59:32;122.07;;;9.97;;
29026;SDS011;16120;48.608;9.092;2023-12-04T21:03:29;121.97;;;9.93;;
29026;SDS011;16120;48.608;9.092;2023-12-04T21:07:24;122.17;;;10.00;;
29026;SDS011;16120;48.608;9.092;2023-12-04T21:11:19;121.77;;;10.10;;
29026;SDS011;16120;48.608;9.092;2023-12-04T21:15:14;122.07;;;9.87;;
29026;SDS011;16120;48.608;9.092;2023-12-04T21:19:11;121.67;;;9.70;;
29026;SDS011;16120;48.608;9.092;2023-12-04T21:23:06;121.47;;;9.73;;
29026;SDS011;16120;48.608;9.092;2023-12-04T21:27:02;121.77;;;10.10;;
29026;SDS011;16120;48.608;9.092;2023-12-04T21:30:57;121.87;;;9.70;;
29026;SDS011;16120;48.608;9.092;2023-12-04T21:34:54;121.87;;;10.20;;
29026;SDS011;16120;48.608;9.092;2023-12-04T21:38:49;120.90;;;9.67;;
29026;SDS011;16120;48.608;9.092;2023-12-04T21:42:45;122.10;;;10.00;;
29026;SDS011;16120;48.608;9.092;2023-12-04T21:46:40;121.50;;;9.77;;
29026;SDS011;16120;48.608;9.092;2023-12-04T21:50:36;122.00;;;10.73;;
29026;SDS011;16120;48.608;9.092;2023-12-04T21:54:32;120.97;;;9.60;;
29026;SDS011;16120;48.608;9.092;2023-12-04T21:58:27;121.00;;;10.27;;
29026;SDS011;16120;48.608;9.092;2023-12-04T22:02:22;121.40;;;10.00;;
29026;SDS011;16120;48.608;9.092;2023-12-04T22:06:19;121.40;;;9.87;;
29026;SDS011;16120;48.608;9.092;2023-12-04T22:10:14;121.27;;;9.40;;
29026;SDS011;16120;48.608;9.092;2023-12-04T22:14:09;121.60;;;10.33;;
29026;SDS011;16120;48.608;9.092;2023-12-04T22:18:04;121.23;;;9.77;;
29026;SDS011;16120;48.608;9.092;2023-12-04T22:22:01;121.30;;;10.17;;
29026;SDS011;16120;48.608;9.092;2023-12-04T22:25:56;120.97;;;9.70;;
29026;SDS011;16120;48.608;9.092;2023-12-04T22:29:51;120.10;;;9.60;;
29026;SDS011;16120;48.608;9.092;2023-12-04T22:33:46;121.27;;;9.67;;
29026;SDS011;16120;48.608;9.092;2023-12-04T22:37:43;120.93;;;9.83;;
29026;SDS011;16120;48.608;9.092;2023-12-04T22:41:38;121.30;;;10.40;;